sensor_id;sensor_type;location;lat;lon;timestamp;P1;durP1;ratioP1;P2;durP2;ratioP2
63394;SDS011;49531;-34.520;150.798;2024-03-08T00:00:08;10.15;;;2.33;;
63394;SDS011;49531;-34.520;150.798;2024-03-08T00:02:40;11.40;;;2.60;;
63394;SDS011;49531;-34.520;150.798;2024-03-08T00:05:08;9.52;;;2.33;;
63394;SDS011;49531;-34.520;150.798;2024-03-08T00:07:36;10.63;;;2.33;;
63394;SDS011;49531;-34.520;150.798;2024-03-08T00:10:06;8.85;;;2.10;;
63394;SDS011;49531;-34.520;150.798;2024-03-08T00:12:38;8.35;;;2.50;;
63394;SDS011;49531;-34.520;150.798;2024-03-08T00:15:10;11.63;;;2.80;;
63394;SDS011;49531;-34.520;150.798;2024-03-08T00:17:41;10.23;;;2.28;;
63394;SDS011;49531;-34.520;150.798;2024-03-08T00:20:10;10.15;;;2.22;;
63394;SDS011;49531;-34.520;150.798;2024-03-08T00:22:38;7.93;;;2.30;;
63394;SDS011;49531;-34.520;150.798;2024-03-08T00:25:07;14.07;;;2.72;;
63394;SDS011;49531;-34.520;150.798;2024-03-08T00:27:40;11.40;;;2.35;;
63394;SDS011;49531;-34.520;150.798;2024-03-08T00:30:07;8.25;;;2.35;;
63394;SDS011;49531;-34.520;150.798;2024-03-08T00:32:34;9.75;;;2.50;;
63394;SDS011;49531;-34.520;150.798;2024-03-08T00:35:02;8.15;;;2.20;;
63394;SDS011;49531;-34.520;150.798;2024-03-08T00:37:29;11.80;;;2.88;;
63394;SDS011;49531;-34.520;150.798;2024-03-08T00:39:56;9.57;;;2.47;;
63394;SDS011;49531;-34.520;150.798;2024-03-08T00:42:24;13.63;;;2.50;;
63394;SDS011;49531;-34.520;150.798;2024-03-08T00:44:51;7.80;;;2.35;;
63394;SDS011;49531;-34.520;150.798;2024-03-08T00:47:18;10.43;;;2.60;;
63394;SDS011;49531;-34.520;150.798;2024-03-08T00:49:45;8.30;;;2.53;;
63394;SDS011;49531;-34.520;150.798;2024-03-08T00:52:13;7.30;;;2.45;;
63394;SDS011;49531;-34.520;150.798;2024-03-08T00:54:40;9.98;;;2.67;;
63394;SDS011;49531;-34.520;150.798;2024-03-08T00:57:08;9.75;;;2.40;;
63394;SDS011;49531;-34.520;150.798;2024-03-08T00:59:37;10.00;;;2.50;;
63394;SDS011;49531;-34.520;150.798;2024-03-08T01:02:04;8.43;;;2.20;;
63394;SDS011;49531;-34.520;150.798;2024-03-08T01:04:31;6.80;;;2.15;;
63394;SDS011;49531;-34.520;150.798;2024-03-08T01:06:59;7.22;;;1.98;;
63394;SDS011;49531;-34.520;150.798;2024-03-08T01:09:26;7.30;;;1.80;;
63394;SDS011;49531;-34.520;150.798;2024-03-08T01:11:54;6.68;;;1.95;;
63394;SDS011;49531;-34.520;150.798;2024-03-08T01:14:22;7.35;;;2.00;;
63394;SDS011;49531;-34.520;150.798;2024-03-08T01:16:52;7.50;;;2.00;;
63394;SDS011;49531;-34.520;150.798;2024-03-08T01:19:20;5.90;;;1.98;;
63394;SDS011;49531;-34.520;150.798;2024-03-08T01:21:47;8.30;;;2.25;;
63394;SDS011;49531;-34.520;150.798;2024-03-08T01:24:14;9.75;;;2.25;;
63394;SDS011;49531;-34.520;150.798;2024-03-08T01:26:42;5.38;;;1.92;;
63394;SDS011;49531;-34.520;150.798;2024-03-08T01:29:10;7.80;;;2.20;;
63394;SDS011;49531;-34.520;150.798;2024-03-08T01:31:40;5.97;;;1.83;;
63394;SDS011;49531;-34.520;150.798;2024-03-08T01:34:07;7.90;;;2.17;;
63394;SDS011;49531;-34.520;150.798;2024-03-08T01:36:35;8.65;;;2.50;;
63394;SDS011;49531;-34.520;150.798;2024-03-08T01:39:06;5.65;;;2.13;;
63394;SDS011;49531;-34.520;150.798;2024-03-08T01:41:33;7.00;;;2.30;;
63394;SDS011;49531;-34.520;150.798;2024-03-08T01:44:01;5.72;;;2.10;;
63394;SDS011;49531;-34.520;150.798;2024-03-08T01:46:29;9.52;;;2.30;;
63394;SDS011;49531;-34.520;150.798;2024-03-08T01:48:57;5.28;;;1.92;;
63394;SDS011;49531;-34.520;150.798;2024-03-08T01:51:26;8.05;;;2.25;;
63394;SDS011;49531;-34.520;150.798;2024-03-08T01:53:54;6.03;;;2.08;;
63394;SDS011;49531;-34.520;150.798;2024-03-08T01:56:25;10.00;;;2.33;;
63394;SDS011;49531;-34.520;150.798;2024-03-08T01:58:53;9.57;;;2.30;;
63394;SDS011;49531;-34.520;150.798;2024-03-08T02:01:21;6.32;;;1.98;;
63394;SDS011;49531;-34.520;150.798;2024-03-08T02:03:49;6.22;;;1.90;;
63394;SDS011;49531;-34.520;150.798;2024-03-08T02:06:16;7.82;;;2.03;;
63394;SDS011;49531;-34.520;150.798;2024-03-08T02:08:43;11.43;;;2.60;;
63394;SDS011;49531;-34.520;150.798;2024-03-08T02:11:12;6.60;;;1.88;;
63394;SDS011;49531;-34.520;150.798;2024-03-08T02:13:39;6.68;;;1.83;;
63394;SDS011;49531;-34.520;150.798;2024-03-08T02:16:06;9.93;;;2.13;;
63394;SDS011;49531;-34.520;150.798;2024-03-08T02:18:34;6.13;;;2.10;;
63394;SDS011;49531;-34.520;150.798;2024-03-08T02:21:01;5.82;;;1.80;;
63394;SDS011;49531;-34.520;150.798;2024-03-08T02:23:30;6.75;;;2.17;;
63394;SDS011;49531;-34.520;150.798;2024-03-08T02:25:57;7.80;;;1.85;;
63394;SDS011;49531;-34.520;150.798;2024-03-08T02:28:25;7.70;;;2.15;;
63394;SDS011;49531;-34.520;150.798;2024-03-08T02:30:52;6.00;;;1.98;;
63394;SDS011;49531;-34.520;150.798;2024-03-08T02:33:22;9.98;;;2.03;;
63394;SDS011;49531;-34.520;150.798;2024-03-08T02:35:50;6.18;;;1.92;;
63394;SDS011;49531;-34.520;150.798;2024-03-08T02:38:18;8.38;;;2.28;;
63394;SDS011;49531;-34.520;150.798;2024-03-08T02:40:47;7.45;;;1.95;;
63394;SDS011;49531;-34.520;150.798;2024-03-08T02:43:16;8.57;;;2.20;;
63394;SDS011;49531;-34.520;150.798;2024-03-08T02:45:44;10.63;;;2.45;;
63394;SDS011;49531;-34.520;150.798;2024-03-08T02:48:13;7.57;;;2.20;;
63394;SDS011;49531;-34.520;150.798;2024-03-08T02:50:41;10.43;;;2.45;;
63394;SDS011;49531;-34.520;150.798;2024-03-08T02:53:10;8.07;;;2.08;;
63394;SDS011;49531;-34.520;150.798;2024-03-08T02:55:38;11.38;;;2.42;;
63394;SDS011;49531;-34.520;150.798;2024-03-08T02:58:07;8.55;;;2.10;;
63394;SDS011;49531;-34.520;150.798;2024-03-08T03:00:37;11.25;;;2.30;;
63394;SDS011;49531;-34.520;150.798;2024-03-08T03:03:06;9.75;;;2.40;;
63394;SDS011;49531;-34.520;150.798;2024-03-08T03:05:33;8.93;;;2.00;;
63394;SDS011;49531;-34.520;150.798;2024-03-08T03:08:00;10.18;;;2.10;;
63394;SDS011;49531;-34.520;150.798;2024-03-08T03:10:29;10.75;;;2.45;;
63394;SDS011;49531;-34.520;150.798;2024-03-08T03:12:56;8.38;;;2.35;;
63394;SDS011;49531;-34.520;150.798;2024-03-08T03:15:23;8.43;;;2.40;;
63394;SDS011;49531;-34.520;150.798;2024-03-08T03:17:51;12.63;;;2.63;;
63394;SDS011;49531;-34.520;150.798;2024-03-08T03:20:18;10.10;;;2.55;;
63394;SDS011;49531;-34.520;150.798;2024-03-08T03:22:52;8.38;;;2.50;;
63394;SDS011;49531;-34.520;150.798;2024-03-08T03:25:19;7.82;;;2.25;;
63394;SDS011;49531;-34.520;150.798;2024-03-08T03:27:52;8.88;;;1.77;;
63394;SDS011;49531;-34.520;150.798;2024-03-08T03:30:22;8.27;;;2.20;;
63394;SDS011;49531;-34.520;150.798;2024-03-08T03:32:52;10.98;;;2.60;;
63394;SDS011;49531;-34.520;150.798;2024-03-08T03:35:26;7.97;;;1.98;;
63394;SDS011;49531;-34.520;150.798;2024-03-08T03:37:54;10.48;;;2.53;;
63394;SDS011;49531;-34.520;150.798;2024-03-08T03:40:41;13.10;;;2.50;;
63394;SDS011;49531;-34.520;150.798;2024-03-08T03:43:10;10.30;;;2.55;;
63394;SDS011;49531;-34.520;150.798;2024-03-08T03:45:39;10.45;;;2.55;;
63394;SDS011;49531;-34.520;150.798;2024-03-08T03:48:07;9.48;;;2.17;;
63394;SDS011;49531;-34.520;150.798;2024-03-08T03:50:37;9.63;;;2.30;;
63394;SDS011;49531;-34.520;150.798;2024-03-08T03:53:04;9.32;;;2.17;;
63394;SDS011;49531;-34.520;150.798;2024-03-08T03:55:34;8.63;;;2.40;;
63394;SDS011;49531;-34.520;150.798;2024-03-08T03:58:03;8.88;;;2.40;;
63394;SDS011;49531;-34.520;150.798;2024-03-08T04:00:31;7.80;;;2.50;;
63394;SDS011;49531;-34.520;150.798;2024-03-08T04:02:58;10.30;;;2.45;;
63394;SDS011;49531;-34.520;150.798;2024-03-08T04:05:26;7.00;;;2.10;;
63394;SDS011;49531;-34.520;150.798;2024-03-08T04:07:53;12.95;;;2.60;;
63394;SDS011;49531;-34.520;150.798;2024-03-08T04:10:20;9.43;;;2.30;;
63394;SDS011;49531;-34.520;150.798;2024-03-08T04:12:47;14.18;;;2.90;;
63394;SDS011;49531;-34.520;150.798;2024-03-08T04:15:16;13.02;;;2.40;;
63394;SDS011;49531;-34.520;150.798;2024-03-08T04:17:43;8.90;;;2.20;;
63394;SDS011;49531;-34.520;150.798;2024-03-08T04:20:11;9.35;;;2.33;;
63394;SDS011;49531;-34.520;150.798;2024-03-08T04:22:40;9.95;;;2.50;;
63394;SDS011;49531;-34.520;150.798;2024-03-08T04:25:07;12.52;;;2.78;;
63394;SDS011;49531;-34.520;150.798;2024-03-08T04:27:35;8.70;;;2.58;;
63394;SDS011;49531;-34.520;150.798;2024-03-08T04:30:03;8.73;;;2.20;;
63394;SDS011;49531;-34.520;150.798;2024-03-08T04:32:33;9.20;;;2.28;;
63394;SDS011;49531;-34.520;150.798;2024-03-08T04:35:00;6.78;;;1.92;;
63394;SDS011;49531;-34.520;150.798;2024-03-08T04:37:28;9.63;;;2.30;;
63394;SDS011;49531;-34.520;150.798;2024-03-08T04:39:56;10.15;;;2.78;;
63394;SDS011;49531;-34.520;150.798;2024-03-08T04:42:23;10.25;;;2.42;;
63394;SDS011;49531;-34.520;150.798;2024-03-08T04:44:51;7.45;;;2.03;;
63394;SDS011;49531;-34.520;150.798;2024-03-08T04:47:22;10.55;;;2.67;;
63394;SDS011;49531;-34.520;150.798;2024-03-08T04:49:49;10.07;;;2.30;;
63394;SDS011;49531;-34.520;150.798;2024-03-08T04:52:16;7.95;;;2.30;;
63394;SDS011;49531;-34.520;150.798;2024-03-08T04:54:43;14.93;;;2.80;;
63394;SDS011;49531;-34.520;150.798;2024-03-08T04:57:10;10.50;;;2.45;;
63394;SDS011;49531;-34.520;150.798;2024-03-08T04:59:37;14.10;;;2.55;;
63394;SDS011;49531;-34.520;150.798;2024-03-08T05:02:05;8.50;;;2.25;;
63394;SDS011;49531;-34.520;150.798;2024-03-08T05:04:33;13.35;;;3.17;;
63394;SDS011;49531;-34.520;150.798;2024-03-08T05:07:00;8.80;;;2.65;;
63394;SDS011;49531;-34.520;150.798;2024-03-08T05:09:28;7.90;;;2.60;;
63394;SDS011;49531;-34.520;150.798;2024-03-08T05:11:57;8.93;;;2.63;;
63394;SDS011;49531;-34.520;150.798;2024-03-08T05:14:24;7.40;;;2.42;;
63394;SDS011;49531;-34.520;150.798;2024-03-08T05:16:51;12.55;;;2.78;;
63394;SDS011;49531;-34.520;150.798;2024-03-08T05:19:19;9.77;;;2.42;;
63394;SDS011;49531;-34.520;150.798;2024-03-08T05:21:47;8.70;;;2.25;;
63394;SDS011;49531;-34.520;150.798;2024-03-08T05:24:15;8.15;;;2.15;;
63394;SDS011;49531;-34.520;150.798;2024-03-08T05:26:43;8.07;;;2.60;;
63394;SDS011;49531;-34.520;150.798;2024-03-08T05:29:11;6.82;;;2.35;;
63394;SDS011;49531;-34.520;150.798;2024-03-08T05:31:49;12.07;;;2.67;;
63394;SDS011;49531;-34.520;150.798;2024-03-08T05:34:20;7.45;;;2.17;;
63394;SDS011;49531;-34.520;150.798;2024-03-08T05:36:48;6.95;;;2.67;;
63394;SDS011;49531;-34.520;150.798;2024-03-08T05:39:16;9.82;;;2.67;;
63394;SDS011;49531;-34.520;150.798;2024-03-08T05:41:45;11.18;;;2.85;;
63394;SDS011;49531;-34.520;150.798;2024-03-08T05:44:12;8.10;;;2.67;;
63394;SDS011;49531;-34.520;150.798;2024-03-08T05:46:40;8.55;;;2.67;;
63394;SDS011;49531;-34.520;150.798;2024-03-08T05:49:07;8.35;;;2.55;;
63394;SDS011;49531;-34.520;150.798;2024-03-08T05:51:36;9.15;;;2.65;;
63394;SDS011;49531;-34.520;150.798;2024-03-08T05:54:05;7.80;;;2.50;;
63394;SDS011;49531;-34.520;150.798;2024-03-08T05:56:37;9.60;;;2.95;;
63394;SDS011;49531;-34.520;150.798;2024-03-08T05:59:10;10.13;;;2.60;;
63394;SDS011;49531;-34.520;150.798;2024-03-08T06:01:37;8.10;;;2.65;;
63394;SDS011;49531;-34.520;150.798;2024-03-08T06:04:06;8.77;;;2.50;;
63394;SDS011;49531;-34.520;150.798;2024-03-08T06:06:33;8.15;;;2.40;;
63394;SDS011;49531;-34.520;150.798;2024-03-08T06:09:03;9.10;;;2.47;;
63394;SDS011;49531;-34.520;150.798;2024-03-08T06:11:36;13.23;;;3.03;;
63394;SDS011;49531;-34.520;150.798;2024-03-08T06:14:03;7.22;;;2.40;;
63394;SDS011;49531;-34.520;150.798;2024-03-08T06:16:31;8.32;;;2.75;;
63394;SDS011;49531;-34.520;150.798;2024-03-08T06:18:59;8.05;;;2.70;;
63394;SDS011;49531;-34.520;150.798;2024-03-08T06:21:28;8.00;;;2.53;;
63394;SDS011;49531;-34.520;150.798;2024-03-08T06:23:55;10.90;;;2.85;;
63394;SDS011;49531;-34.520;150.798;2024-03-08T06:26:25;7.15;;;2.40;;
63394;SDS011;49531;-34.520;150.798;2024-03-08T06:28:55;6.45;;;2.28;;
63394;SDS011;49531;-34.520;150.798;2024-03-08T06:31:23;8.73;;;2.45;;
63394;SDS011;49531;-34.520;150.798;2024-03-08T06:33:50;11.05;;;2.85;;
63394;SDS011;49531;-34.520;150.798;2024-03-08T06:36:20;5.88;;;2.10;;
63394;SDS011;49531;-34.520;150.798;2024-03-08T06:38:50;7.07;;;2.40;;
63394;SDS011;49531;-34.520;150.798;2024-03-08T06:41:17;7.72;;;2.30;;
63394;SDS011;49531;-34.520;150.798;2024-03-08T06:43:46;7.53;;;2.22;;
63394;SDS011;49531;-34.520;150.798;2024-03-08T06:46:17;9.18;;;2.33;;
63394;SDS011;49531;-34.520;150.798;2024-03-08T06:48:46;7.75;;;2.30;;
63394;SDS011;49531;-34.520;150.798;2024-03-08T06:51:14;5.95;;;2.00;;
63394;SDS011;49531;-34.520;150.798;2024-03-08T06:53:42;6.70;;;1.75;;
63394;SDS011;49531;-34.520;150.798;2024-03-08T06:56:12;4.60;;;1.40;;
63394;SDS011;49531;-34.520;150.798;2024-03-08T06:58:41;5.03;;;1.55;;
63394;SDS011;49531;-34.520;150.798;2024-03-08T07:01:09;4.88;;;1.45;;
63394;SDS011;49531;-34.520;150.798;2024-03-08T07:03:41;9.18;;;1.90;;
63394;SDS011;49531;-34.520;150.798;2024-03-08T07:06:10;3.95;;;1.30;;
63394;SDS011;49531;-34.520;150.798;2024-03-08T07:08:40;8.18;;;1.83;;
63394;SDS011;49531;-34.520;150.798;2024-03-08T07:11:11;6.45;;;1.48;;
63394;SDS011;49531;-34.520;150.798;2024-03-08T07:13:41;8.32;;;1.50;;
63394;SDS011;49531;-34.520;150.798;2024-03-08T07:16:08;6.57;;;1.60;;
63394;SDS011;49531;-34.520;150.798;2024-03-08T07:18:38;9.85;;;1.80;;
63394;SDS011;49531;-34.520;150.798;2024-03-08T07:21:12;8.65;;;1.48;;
63394;SDS011;49531;-34.520;150.798;2024-03-08T07:23:39;6.05;;;1.40;;
63394;SDS011;49531;-34.520;150.798;2024-03-08T07:26:26;6.43;;;1.30;;
63394;SDS011;49531;-34.520;150.798;2024-03-08T07:29:06;5.60;;;1.58;;
63394;SDS011;49531;-34.520;150.798;2024-03-08T07:31:33;6.25;;;1.63;;
63394;SDS011;49531;-34.520;150.798;2024-03-08T07:34:16;4.75;;;1.40;;
63394;SDS011;49531;-34.520;150.798;2024-03-08T07:36:43;5.53;;;1.55;;
63394;SDS011;49531;-34.520;150.798;2024-03-08T07:39:11;6.60;;;1.80;;
63394;SDS011;49531;-34.520;150.798;2024-03-08T07:41:40;7.22;;;2.00;;
63394;SDS011;49531;-34.520;150.798;2024-03-08T07:44:07;7.57;;;1.95;;
63394;SDS011;49531;-34.520;150.798;2024-03-08T07:46:35;5.20;;;1.83;;
63394;SDS011;49531;-34.520;150.798;2024-03-08T07:49:02;5.65;;;1.80;;
63394;SDS011;49531;-34.520;150.798;2024-03-08T07:51:36;7.90;;;1.77;;
63394;SDS011;49531;-34.520;150.798;2024-03-08T07:54:04;4.80;;;1.55;;
63394;SDS011;49531;-34.520;150.798;2024-03-08T07:56:33;6.25;;;1.80;;
63394;SDS011;49531;-34.520;150.798;2024-03-08T07:59:02;6.53;;;2.03;;
63394;SDS011;49531;-34.520;150.798;2024-03-08T08:01:31;9.98;;;2.13;;
63394;SDS011;49531;-34.520;150.798;2024-03-08T08:04:02;5.55;;;1.70;;
63394;SDS011;49531;-34.520;150.798;2024-03-08T08:06:29;4.70;;;1.73;;
63394;SDS011;49531;-34.520;150.798;2024-03-08T08:09:01;8.27;;;2.00;;
63394;SDS011;49531;-34.520;150.798;2024-03-08T08:11:28;4.38;;;1.75;;
63394;SDS011;49531;-34.520;150.798;2024-03-08T08:13:56;6.85;;;1.80;;
63394;SDS011;49531;-34.520;150.798;2024-03-08T08:16:25;4.65;;;1.30;;
63394;SDS011;49531;-34.520;150.798;2024-03-08T08:18:52;6.90;;;1.85;;
63394;SDS011;49531;-34.520;150.798;2024-03-08T08:21:20;3.72;;;1.25;;
63394;SDS011;49531;-34.520;150.798;2024-03-08T08:23:47;7.45;;;1.63;;
63394;SDS011;49531;-34.520;150.798;2024-03-08T08:26:14;6.38;;;1.50;;
63394;SDS011;49531;-34.520;150.798;2024-03-08T08:28:42;5.57;;;1.48;;
63394;SDS011;49531;-34.520;150.798;2024-03-08T08:31:11;6.13;;;1.33;;
63394;SDS011;49531;-34.520;150.798;2024-03-08T08:33:38;5.32;;;1.10;;
63394;SDS011;49531;-34.520;150.798;2024-03-08T08:36:06;5.93;;;1.45;;
63394;SDS011;49531;-34.520;150.798;2024-03-08T08:38:33;6.05;;;1.30;;
63394;SDS011;49531;-34.520;150.798;2024-03-08T08:41:00;5.28;;;1.33;;
63394;SDS011;49531;-34.520;150.798;2024-03-08T08:43:28;8.20;;;1.70;;
63394;SDS011;49531;-34.520;150.798;2024-03-08T08:45:55;5.55;;;1.30;;
63394;SDS011;49531;-34.520;150.798;2024-03-08T08:48:22;3.08;;;1.08;;
63394;SDS011;49531;-34.520;150.798;2024-03-08T08:50:50;4.13;;;1.20;;
63394;SDS011;49531;-34.520;150.798;2024-03-08T08:53:17;4.85;;;1.30;;
63394;SDS011;49531;-34.520;150.798;2024-03-08T08:55:45;4.03;;;1.20;;
63394;SDS011;49531;-34.520;150.798;2024-03-08T08:58:12;3.85;;;1.10;;
63394;SDS011;49531;-34.520;150.798;2024-03-08T09:00:39;4.45;;;1.10;;
63394;SDS011;49531;-34.520;150.798;2024-03-08T09:03:07;3.80;;;1.30;;
63394;SDS011;49531;-34.520;150.798;2024-03-08T09:05:34;4.50;;;1.27;;
63394;SDS011;49531;-34.520;150.798;2024-03-08T09:08:01;4.40;;;1.30;;
63394;SDS011;49531;-34.520;150.798;2024-03-08T09:10:29;3.20;;;1.00;;
63394;SDS011;49531;-34.520;150.798;2024-03-08T09:12:56;6.30;;;1.52;;
63394;SDS011;49531;-34.520;150.798;2024-03-08T09:15:25;3.30;;;1.30;;
63394;SDS011;49531;-34.520;150.798;2024-03-08T09:17:54;4.72;;;1.30;;
63394;SDS011;49531;-34.520;150.798;2024-03-08T09:20:21;2.08;;;1.00;;
63394;SDS011;49531;-34.520;150.798;2024-03-08T09:22:48;4.10;;;1.20;;
63394;SDS011;49531;-34.520;150.798;2024-03-08T09:25:15;3.70;;;1.10;;
63394;SDS011;49531;-34.520;150.798;2024-03-08T09:27:42;4.65;;;1.13;;
63394;SDS011;49531;-34.520;150.798;2024-03-08T09:30:09;3.10;;;0.90;;
63394;SDS011;49531;-34.520;150.798;2024-03-08T09:32:38;2.83;;;1.08;;
63394;SDS011;49531;-34.520;150.798;2024-03-08T09:35:05;4.07;;;1.20;;
63394;SDS011;49531;-34.520;150.798;2024-03-08T09:37:33;3.58;;;1.23;;
63394;SDS011;49531;-34.520;150.798;2024-03-08T09:40:00;4.88;;;1.38;;
63394;SDS011;49531;-34.520;150.798;2024-03-08T09:42:30;3.60;;;1.20;;
63394;SDS011;49531;-34.520;150.798;2024-03-08T09:44:58;1.98;;;1.02;;
63394;SDS011;49531;-34.520;150.798;2024-03-08T09:47:26;2.63;;;1.10;;
63394;SDS011;49531;-34.520;150.798;2024-03-08T09:49:59;4.85;;;1.30;;
63394;SDS011;49531;-34.520;150.798;2024-03-08T09:52:26;4.25;;;1.30;;
63394;SDS011;49531;-34.520;150.798;2024-03-08T09:54:56;5.30;;;1.45;;
63394;SDS011;49531;-34.520;150.798;2024-03-08T09:57:23;4.40;;;1.30;;
63394;SDS011;49531;-34.520;150.798;2024-03-08T09:59:52;4.10;;;1.25;;
63394;SDS011;49531;-34.520;150.798;2024-03-08T10:02:19;3.08;;;1.20;;
63394;SDS011;49531;-34.520;150.798;2024-03-08T10:04:46;5.18;;;1.35;;
63394;SDS011;49531;-34.520;150.798;2024-03-08T10:07:14;3.08;;;1.20;;
63394;SDS011;49531;-34.520;150.798;2024-03-08T10:09:41;2.40;;;1.20;;
63394;SDS011;49531;-34.520;150.798;2024-03-08T10:12:15;2.83;;;1.25;;
63394;SDS011;49531;-34.520;150.798;2024-03-08T10:14:43;4.03;;;1.30;;
63394;SDS011;49531;-34.520;150.798;2024-03-08T10:17:10;2.78;;;1.10;;
63394;SDS011;49531;-34.520;150.798;2024-03-08T10:19:37;5.97;;;1.50;;
63394;SDS011;49531;-34.520;150.798;2024-03-08T10:22:05;4.97;;;1.42;;
63394;SDS011;49531;-34.520;150.798;2024-03-08T10:24:32;2.60;;;1.20;;
63394;SDS011;49531;-34.520;150.798;2024-03-08T10:27:01;6.53;;;1.50;;
63394;SDS011;49531;-34.520;150.798;2024-03-08T10:29:32;4.03;;;1.45;;
63394;SDS011;49531;-34.520;150.798;2024-03-08T10:32:00;3.33;;;1.30;;
63394;SDS011;49531;-34.520;150.798;2024-03-08T10:34:31;3.75;;;1.10;;
63394;SDS011;49531;-34.520;150.798;2024-03-08T10:37:00;4.70;;;1.38;;
63394;SDS011;49531;-34.520;150.798;2024-03-08T10:39:33;3.13;;;1.20;;
63394;SDS011;49531;-34.520;150.798;2024-03-08T10:42:02;3.30;;;1.20;;
63394;SDS011;49531;-34.520;150.798;2024-03-08T10:44:34;2.72;;;1.10;;
63394;SDS011;49531;-34.520;150.798;2024-03-08T10:49:50;2.47;;;1.00;;
63394;SDS011;49531;-34.520;150.798;2024-03-08T10:52:20;4.57;;;1.30;;
63394;SDS011;49531;-34.520;150.798;2024-03-08T10:54:48;2.08;;;0.95;;
63394;SDS011;49531;-34.520;150.798;2024-03-08T10:57:17;4.45;;;1.20;;
63394;SDS011;49531;-34.520;150.798;2024-03-08T10:59:49;3.05;;;1.13;;
63394;SDS011;49531;-34.520;150.798;2024-03-08T11:02:17;3.85;;;1.27;;
63394;SDS011;49531;-34.520;150.798;2024-03-08T11:04:49;2.50;;;1.00;;
63394;SDS011;49531;-34.520;150.798;2024-03-08T11:07:16;2.63;;;1.00;;
63394;SDS011;49531;-34.520;150.798;2024-03-08T11:09:44;2.03;;;0.93;;
63394;SDS011;49531;-34.520;150.798;2024-03-08T11:12:22;2.45;;;1.00;;
63394;SDS011;49531;-34.520;150.798;2024-03-08T11:15:01;4.40;;;1.50;;
63394;SDS011;49531;-34.520;150.798;2024-03-08T11:20:11;2.42;;;0.90;;
63394;SDS011;49531;-34.520;150.798;2024-03-08T11:23:04;3.78;;;1.15;;
63394;SDS011;49531;-34.520;150.798;2024-03-08T11:25:34;2.15;;;1.00;;
63394;SDS011;49531;-34.520;150.798;2024-03-08T11:28:13;3.85;;;1.17;;
63394;SDS011;49531;-34.520;150.798;2024-03-08T11:30:45;2.45;;;1.00;;
63394;SDS011;49531;-34.520;150.798;2024-03-08T11:33:35;5.38;;;1.30;;
63394;SDS011;49531;-34.520;150.798;2024-03-08T11:36:13;2.70;;;1.00;;
63394;SDS011;49531;-34.520;150.798;2024-03-08T11:38:48;4.68;;;1.20;;
63394;SDS011;49531;-34.520;150.798;2024-03-08T11:41:21;2.70;;;0.93;;
63394;SDS011;49531;-34.520;150.798;2024-03-08T11:43:49;6.20;;;1.27;;
63394;SDS011;49531;-34.520;150.798;2024-03-08T11:46:30;3.45;;;1.08;;
63394;SDS011;49531;-34.520;150.798;2024-03-08T11:48:57;3.60;;;1.23;;
63394;SDS011;49531;-34.520;150.798;2024-03-08T11:51:26;2.90;;;1.02;;
63394;SDS011;49531;-34.520;150.798;2024-03-08T11:53:53;2.30;;;1.05;;
63394;SDS011;49531;-34.520;150.798;2024-03-08T11:56:21;1.67;;;0.88;;
63394;SDS011;49531;-34.520;150.798;2024-03-08T11:58:54;2.92;;;1.00;;
63394;SDS011;49531;-34.520;150.798;2024-03-08T12:01:26;3.00;;;0.93;;
63394;SDS011;49531;-34.520;150.798;2024-03-08T12:03:53;4.53;;;1.33;;
63394;SDS011;49531;-34.520;150.798;2024-03-08T12:06:24;1.88;;;0.90;;
63394;SDS011;49531;-34.520;150.798;2024-03-08T12:08:52;2.22;;;0.95;;
63394;SDS011;49531;-34.520;150.798;2024-03-08T12:11:20;3.85;;;1.20;;
63394;SDS011;49531;-34.520;150.798;2024-03-08T12:13:51;2.53;;;0.85;;
63394;SDS011;49531;-34.520;150.798;2024-03-08T12:16:19;3.83;;;1.10;;
63394;SDS011;49531;-34.520;150.798;2024-03-08T12:18:47;2.30;;;1.00;;
63394;SDS011;49531;-34.520;150.798;2024-03-08T12:21:14;3.08;;;1.08;;
63394;SDS011;49531;-34.520;150.798;2024-03-08T12:23:47;3.30;;;1.05;;
63394;SDS011;49531;-34.520;150.798;2024-03-08T12:26:25;2.08;;;1.00;;
63394;SDS011;49531;-34.520;150.798;2024-03-08T12:28:53;2.20;;;0.95;;
63394;SDS011;49531;-34.520;150.798;2024-03-08T12:31:20;5.45;;;1.20;;
63394;SDS011;49531;-34.520;150.798;2024-03-08T12:33:51;4.30;;;1.30;;
63394;SDS011;49531;-34.520;150.798;2024-03-08T12:36:24;1.90;;;0.85;;
63394;SDS011;49531;-34.520;150.798;2024-03-08T12:38:53;3.10;;;1.20;;
63394;SDS011;49531;-34.520;150.798;2024-03-08T12:41:21;3.25;;;1.10;;
63394;SDS011;49531;-34.520;150.798;2024-03-08T12:43:48;2.92;;;1.02;;
63394;SDS011;49531;-34.520;150.798;2024-03-08T12:46:15;4.40;;;1.20;;
63394;SDS011;49531;-34.520;150.798;2024-03-08T12:48:43;3.03;;;1.15;;
63394;SDS011;49531;-34.520;150.798;2024-03-08T12:51:15;3.00;;;1.00;;
63394;SDS011;49531;-34.520;150.798;2024-03-08T12:53:44;2.10;;;0.88;;
63394;SDS011;49531;-34.520;150.798;2024-03-08T12:56:13;5.85;;;1.10;;
63394;SDS011;49531;-34.520;150.798;2024-03-08T12:58:46;2.95;;;1.27;;
63394;SDS011;49531;-34.520;150.798;2024-03-08T13:01:13;3.38;;;1.40;;
63394;SDS011;49531;-34.520;150.798;2024-03-08T13:03:40;3.83;;;1.70;;
63394;SDS011;49531;-34.520;150.798;2024-03-08T13:06:09;4.40;;;1.70;;
63394;SDS011;49531;-34.520;150.798;2024-03-08T13:08:36;3.15;;;1.40;;
63394;SDS011;49531;-34.520;150.798;2024-03-08T13:11:07;3.67;;;1.33;;
63394;SDS011;49531;-34.520;150.798;2024-03-08T13:13:36;3.15;;;1.35;;
63394;SDS011;49531;-34.520;150.798;2024-03-08T13:16:08;3.90;;;1.58;;
63394;SDS011;49531;-34.520;150.798;2024-03-08T13:18:37;3.30;;;1.45;;
63394;SDS011;49531;-34.520;150.798;2024-03-08T13:21:05;6.50;;;1.50;;
63394;SDS011;49531;-34.520;150.798;2024-03-08T13:23:33;4.05;;;1.45;;
63394;SDS011;49531;-34.520;150.798;2024-03-08T13:26:10;3.83;;;1.50;;
63394;SDS011;49531;-34.520;150.798;2024-03-08T13:28:46;4.20;;;1.50;;
63394;SDS011;49531;-34.520;150.798;2024-03-08T13:31:22;2.63;;;1.50;;
63394;SDS011;49531;-34.520;150.798;2024-03-08T13:33:49;5.13;;;1.50;;
63394;SDS011;49531;-34.520;150.798;2024-03-08T13:36:23;2.58;;;1.23;;
63394;SDS011;49531;-34.520;150.798;2024-03-08T13:38:54;2.67;;;1.35;;
63394;SDS011;49531;-34.520;150.798;2024-03-08T13:41:24;4.82;;;1.60;;
63394;SDS011;49531;-34.520;150.798;2024-03-08T13:43:51;4.72;;;1.45;;
63394;SDS011;49531;-34.520;150.798;2024-03-08T13:46:19;3.08;;;1.40;;
63394;SDS011;49531;-34.520;150.798;2024-03-08T13:48:46;4.55;;;1.17;;
63394;SDS011;49531;-34.520;150.798;2024-03-08T13:51:17;6.10;;;1.38;;
63394;SDS011;49531;-34.520;150.798;2024-03-08T13:53:45;2.57;;;1.23;;
63394;SDS011;49531;-34.520;150.798;2024-03-08T13:56:16;4.35;;;1.40;;
63394;SDS011;49531;-34.520;150.798;2024-03-08T13:58:43;1.73;;;1.15;;
63394;SDS011;49531;-34.520;150.798;2024-03-08T14:01:10;3.03;;;1.10;;
63394;SDS011;49531;-34.520;150.798;2024-03-08T14:03:38;2.25;;;1.20;;
63394;SDS011;49531;-34.520;150.798;2024-03-08T14:06:08;3.88;;;1.27;;
63394;SDS011;49531;-34.520;150.798;2024-03-08T14:08:36;2.88;;;1.13;;
63394;SDS011;49531;-34.520;150.798;2024-03-08T14:11:06;3.10;;;1.15;;
63394;SDS011;49531;-34.520;150.798;2024-03-08T14:13:43;5.95;;;1.30;;
63394;SDS011;49531;-34.520;150.798;2024-03-08T14:16:11;4.40;;;1.30;;
63394;SDS011;49531;-34.520;150.798;2024-03-08T14:18:39;3.45;;;1.10;;
63394;SDS011;49531;-34.520;150.798;2024-03-08T14:21:06;4.10;;;1.25;;